Time;durP1;ratioP1;P1;durP2;ratioP2;P2;SDS_P1;SDS_P2;PMS_P1;PMS_P2;Temp;Humidity;BMP_temperature;BMP_pressure;BME280_temperature;BME280_humidity;BME280_pressure;Samples;Min_cycle;Max_cycle;Signal;HPM_P1;HPM_P2
2022/07/16 00:02:32;;;;;;;1.88;0.82;;;;;;;14.24;54.75;100966.72;4983358;28;20101;-75
2022/07/16 00:04:57;;;;;;;4.00;1.35;;;;;;;14.14;54.89;100968.59;4985675;28;20027;-75
2022/07/16 00:07:22;;;;;;;3.90;0.70;;;;;;;14.10;55.57;100968.69;4988498;28;20040;-75
2022/07/16 00:09:47;;;;;;;1.52;0.70;;;;;;;14.10;54.83;100969.56;4984462;28;20122;-74
2022/07/16 00:12:13;;;;;;;3.63;1.08;;;;;;;14.10;55.31;100966.03;4983212;28;20038;-75
2022/07/16 00:14:38;;;;;;;4.78;0.88;;;;;;;14.09;54.92;100970.44;4985207;28;20039;-75
2022/07/16 00:17:04;;;;;;;3.85;0.85;;;;;;;14.14;55.26;100965.97;4986392;28;20037;-75
2022/07/16 00:19:29;;;;;;;2.13;0.70;;;;;;;14.18;55.00;100959.72;4986146;28;20121;-75
2022/07/16 00:21:56;;;;;;;3.38;0.65;;;;;;;14.25;55.10;100955.19;4982468;28;20046;-74
2022/07/16 00:24:23;;;;;;;1.38;0.57;;;;;;;14.26;54.88;100951.66;4984676;28;20117;-75
2022/07/16 00:26:48;;;;;;;1.27;0.40;;;;;;;14.23;55.17;100951.69;4985202;28;20039;-74
2022/07/16 00:29:15;;;;;;;2.28;0.70;;;;;;;14.22;55.49;100957.88;4992367;28;20160;-75
2022/07/16 00:31:42;;;;;;;0.60;0.40;;;;;;;14.12;55.85;100948.28;4981734;28;20034;-74
2022/07/16 00:34:08;;;;;;;1.40;0.77;;;;;;;14.07;55.75;100952.78;4985232;28;20073;-74
2022/07/16 00:36:35;;;;;;;1.33;0.50;;;;;;;14.14;55.63;100947.38;4981852;28;20043;-74
2022/07/16 00:39:00;;;;;;;1.05;0.70;;;;;;;14.24;56.26;100940.16;4984058;28;20042;-74
2022/07/16 00:41:25;;;;;;;3.33;0.73;;;;;;;14.20;56.11;100939.34;4982337;28;20038;-75
2022/07/16 00:43:57;;;;;;;3.03;0.55;;;;;;;14.21;55.91;100948.19;4985144;28;20038;-74
2022/07/16 00:46:23;;;;;;;0.77;0.45;;;;;;;14.22;55.57;100936.66;4982824;28;20486;-74
2022/07/16 00:48:48;;;;;;;3.63;0.30;;;;;;;14.21;56.44;100938.44;4984200;28;20049;-74
2022/07/16 00:51:15;;;;;;;0.88;0.52;;;;;;;14.27;56.20;100940.13;4983236;28;20050;-75
2022/07/16 00:53:41;;;;;;;2.70;0.70;;;;;;;14.30;56.67;100928.56;4982902;28;20060;-75
2022/07/16 00:56:11;;;;;;;2.42;0.50;;;;;;;14.34;56.43;100931.16;4985181;28;20038;-74
2022/07/16 00:58:39;;;;;;;4.22;0.40;;;;;;;14.40;55.81;100932.84;4982228;28;20090;-74
2022/07/16 01:01:04;;;;;;;3.55;0.40;;;;;;;14.36;56.79;100931.16;4984574;28;20086;-75
2022/07/16 01:03:30;;;;;;;1.80;0.60;;;;;;;14.35;56.87;100929.38;4983165;28;20046;-74
2022/07/16 01:05:56;;;;;;;0.28;0.25;;;;;;;14.36;57.39;100929.38;4984550;28;20045;-74
2022/07/16 01:08:22;;;;;;;1.55;0.68;;;;;;;14.41;56.98;100919.56;4983926;28;20449;-75
2022/07/16 01:10:47;;;;;;;0.88;0.35;;;;;;;14.47;57.20;100919.44;4984850;28;20062;-74
2022/07/16 01:13:14;;;;;;;2.20;0.40;;;;;;;14.57;56.45;100927.31;4981558;28;20501;-74
2022/07/16 01:15:39;;;;;;;2.63;0.68;;;;;;;14.57;57.12;100925.53;4983442;28;20030;-74
2022/07/16 01:18:04;;;;;;;1.42;0.80;;;;;;;14.57;56.85;100929.97;4983219;28;20825;-74
2022/07/16 01:20:30;;;;;;;3.38;0.60;;;;;;;14.62;56.72;100917.50;4982230;28;20541;-74
2022/07/16 01:22:56;;;;;;;2.65;0.85;;;;;;;14.65;57.04;100922.75;4984066;28;20085;-75
2022/07/16 01:25:21;;;;;;;1.02;0.52;;;;;;;14.69;56.69;100919.13;4981638;28;20058;-75
2022/07/16 01:27:46;;;;;;;1.80;1.13;;;;;;;14.72;56.79;100915.53;4983765;28;20045;-75
2022/07/16 01:30:12;;;;;;;1.33;0.38;;;;;;;14.73;56.30;100915.53;4982600;28;20121;-74
2022/07/16 01:32:38;;;;;;;1.90;0.90;;;;;;;14.81;55.85;100918.06;4982173;28;20115;-75
2022/07/16 01:35:04;;;;;;;1.80;0.57;;;;;;;14.84;55.81;100918.88;4983698;28;20030;-75
2022/07/16 01:37:29;;;;;;;2.38;0.60;;;;;;;14.80;56.57;100917.19;4977847;28;20053;-75
2022/07/16 01:39:54;;;;;;;2.20;0.70;;;;;;;14.77;56.18;100917.22;4984483;28;20046;-75
2022/07/16 01:42:20;;;;;;;3.05;0.50;;;;;;;14.83;56.61;100911.81;4980609;28;20039;-75
2022/07/16 01:44:45;;;;;;;1.45;0.32;;;;;;;14.87;55.94;100908.16;4983420;28;20135;-75
2022/07/16 01:47:10;;;;;;;6.03;0.80;;;;;;;14.82;56.55;100912.69;4982590;28;20070;-75
2022/07/16 01:49:38;;;;;;;0.95;0.35;;;;;;;14.83;56.14;100911.81;4982421;28;20126;-75
2022/07/16 01:52:08;;;;;;;1.33;0.50;;;;;;;14.87;56.55;100909.97;4983347;28;20041;-75
2022/07/16 01:54:34;;;;;;;1.88;0.40;;;;;;;14.86;56.45;100905.56;4981336;28;20046;-75
2022/07/16 01:57:00;;;;;;;0.95;0.30;;;;;;;14.87;55.88;100908.16;4983350;28;20054;-75
2022/07/16 01:59:25;;;;;;;2.35;0.35;;;;;;;14.85;56.35;100904.66;4987426;28;20045;-75
2022/07/16 02:01:51;;;;;;;1.05;0.30;;;;;;;14.87;56.09;100900.19;4987066;28;20042;-75
2022/07/16 02:04:16;;;;;;;0.30;0.20;;;;;;;14.91;55.88;100898.38;4997010;28;20058;-75
2022/07/16 02:06:42;;;;;;;1.65;0.40;;;;;;;14.90;55.95;100893.94;4985454;28;20038;-75
2022/07/16 02:09:07;;;;;;;0.40;0.20;;;;;;;14.87;55.73;100891.34;4984389;28;20034;-75
2022/07/16 02:11:32;;;;;;;0.82;0.30;;;;;;;14.86;55.99;100893.16;4984727;28;20117;-75
2022/07/16 02:13:58;;;;;;;0.98;0.40;;;;;;;14.83;56.43;100887.03;4983795;28;20121;-75
2022/07/16 02:16:23;;;;;;;4.25;0.60;;;;;;;14.79;56.93;100888.84;4982695;28;20042;-75
2022/07/16 02:18:48;;;;;;;4.57;0.77;;;;;;;14.81;56.75;100880.84;4981397;28;20122;-74
2022/07/16 02:21:14;;;;;;;0.75;0.43;;;;;;;14.83;56.44;100874.59;4982953;28;20042;-74
2022/07/16 02:23:39;;;;;;;6.50;1.02;;;;;;;14.85;56.26;100878.09;4980612;28;20118;-75
2022/07/16 02:26:04;;;;;;;1.58;0.63;;;;;;;14.84;56.29;100878.13;4983279;28;20030;-74
2022/07/16 02:28:30;;;;;;;1.17;0.40;;;;;;;14.85;55.93;100874.56;4980769;28;20046;-75
2022/07/16 02:30:55;;;;;;;0.90;0.30;;;;;;;14.80;56.37;100872.00;4981403;28;20114;-75
2022/07/16 02:33:21;;;;;;;1.20;0.32;;;;;;;14.81;56.81;100876.41;4982683;28;20042;-75
2022/07/16 02:35:47;;;;;;;0.82;0.38;;;;;;;14.79;56.60;100872.91;4982156;28;20050;-74
2022/07/16 02:38:13;;;;;;;1.40;0.43;;;;;;;14.77;56.95;100873.81;4980205;28;20038;-74
2022/07/16 02:40:40;;;;;;;1.52;0.38;;;;;;;14.75;56.82;100871.22;4980495;28;20043;-74
2022/07/16 02:43:06;;;;;;;1.00;0.50;;;;;;;14.77;56.36;100874.69;4981848;28;20037;-75
2022/07/16 02:45:37;;;;;;;3.22;0.65;;;;;;;14.74;56.72;100873.88;4982205;28;20026;-74
2022/07/16 02:48:03;;;;;;;2.60;0.38;;;;;;;14.70;56.66;100867.75;4980611;28;20047;-74
2022/07/16 02:50:29;;;;;;;2.10;0.55;;;;;;;14.73;56.99;100873.00;4990586;28;20051;-74
2022/07/16 02:52:54;;;;;;;0.95;0.40;;;;;;;14.73;56.86;100869.50;4985932;28;20031;-74
2022/07/16 02:55:20;;;;;;;0.77;0.40;;;;;;;14.68;56.99;100869.56;4982366;28;20125;-74
2022/07/16 02:57:45;;;;;;;1.35;0.95;;;;;;;14.63;57.05;100868.75;4981742;28;20045;-74
2022/07/16 03:00:13;;;;;;;1.70;0.63;;;;;;;14.56;57.28;100865.31;4984086;28;20038;-74
2022/07/16 03:02:39;;;;;;;2.28;0.30;;;;;;;14.50;57.34;100864.53;4979661;28;20058;-74
2022/07/16 03:05:04;;;;;;;0.90;0.40;;;;;;;14.36;57.75;100860.34;4980315;28;20556;-74
2022/07/16 03:07:30;;;;;;;0.43;0.22;;;;;;;14.28;57.74;100854.28;4987910;28;20113;-75
2022/07/16 03:09:55;;;;;;;1.45;0.73;;;;;;;14.18;58.48;100860.63;4981427;28;20034;-74
2022/07/16 03:12:20;;;;;;;1.13;0.43;;;;;;;14.09;58.14;100864.28;4980861;28;20405;-75
2022/07/16 03:14:46;;;;;;;2.05;0.45;;;;;;;14.00;59.16;100865.31;4982467;28;20039;-74
2022/07/16 03:17:12;;;;;;;1.00;0.50;;;;;;;13.95;59.67;100867.16;4980313;28;20057;-74
2022/07/16 03:19:37;;;;;;;2.95;0.68;;;;;;;13.92;59.33;100871.63;4980457;28;20063;-74
2022/07/16 03:22:03;;;;;;;1.27;0.60;;;;;;;13.88;59.70;100872.56;4986137;28;20790;-74
2022/07/16 03:24:28;;;;;;;2.53;0.70;;;;;;;13.88;59.07;100876.09;4982772;28;20031;-74
2022/07/16 03:26:54;;;;;;;1.75;0.57;;;;;;;13.84;59.79;100874.41;4982866;28;20081;-74
2022/07/16 03:29:19;;;;;;;2.20;0.30;;;;;;;13.79;59.65;100876.25;4983187;28;20042;-74
2022/07/16 03:31:45;;;;;;;2.53;1.17;;;;;;;13.84;59.75;100881.50;4991444;28;20038;-75
2022/07/16 03:34:10;;;;;;;0.68;0.50;;;;;;;13.87;60.02;100871.69;4984617;28;20049;-75
2022/07/16 03:36:35;;;;;;;2.13;0.88;;;;;;;13.94;59.94;100875.16;4979499;28;20051;-75
2022/07/16 03:39:06;;;;;;;3.92;0.52;;;;;;;13.96;59.38;100874.22;4980584;28;20049;-75
2022/07/16 03:41:36;;;;;;;6.03;0.95;;;;;;;14.05;59.63;100867.03;4983117;28;20671;-75
2022/07/16 03:44:04;;;;;;;0.90;0.30;;;;;;;14.14;59.69;100864.22;4986353;28;20034;-75
2022/07/16 03:46:29;;;;;;;2.60;0.90;;;;;;;14.15;59.28;100871.31;4983500;28;20502;-75
2022/07/16 03:48:55;;;;;;;0.88;0.50;;;;;;;14.16;59.45;100871.25;4983366;28;20034;-74
2022/07/16 03:51:21;;;;;;;9.50;0.52;;;;;;;14.17;59.67;100866.81;4984362;28;20542;-75
2022/07/16 03:53:46;;;;;;;1.92;0.50;;;;;;;14.23;58.80;100869.41;4981972;28;20133;-75
2022/07/16 03:56:12;;;;;;;1.38;0.40;;;;;;;14.29;58.68;100874.59;4986352;28;20174;-74
2022/07/16 03:58:37;;;;;;;2.65;0.80;;;;;;;14.30;58.97;100870.16;4986215;28;20074;-74
2022/07/16 04:01:03;;;;;;;2.17;0.80;;;;;;;14.28;58.87;100864.91;4985671;28;20038;-75
2022/07/16 04:03:28;;;;;;;0.45;0.38;;;;;;;14.21;59.09;100863.22;4989335;28;20408;-74
2022/07/16 04:05:54;;;;;;;0.82;0.52;;;;;;;14.22;59.26;100859.66;4982920;28;20523;-74
2022/07/16 04:08:19;;;;;;;1.85;0.80;;;;;;;14.29;58.53;100858.66;4982373;28;20517;-74
2022/07/16 04:10:45;;;;;;;5.07;0.70;;;;;;;14.30;58.23;100860.41;4985287;28;20046;-74
2022/07/16 04:13:10;;;;;;;1.42;0.60;;;;;;;14.37;58.58;100855.91;4982189;28;20043;-74
2022/07/16 04:15:36;;;;;;;1.65;0.63;;;;;;;14.41;58.21;100845.19;4981488;28;20378;-74
2022/07/16 04:18:01;;;;;;;0.88;0.38;;;;;;;14.55;58.03;100852.09;4984343;28;20109;-75
2022/07/16 04:20:27;;;;;;;1.20;0.50;;;;;;;14.61;57.90;100857.28;4985724;28;20043;-75
2022/07/16 04:22:52;;;;;;;1.30;0.65;;;;;;;14.64;57.84;100851.91;4984922;28;20039;-74
2022/07/16 04:25:19;;;;;;;1.95;0.77;;;;;;;14.71;57.85;100852.69;4983421;28;20070;-74
2022/07/16 04:27:44;;;;;;;1.90;0.90;;;;;;;14.90;57.54;100844.34;4986350;28;20048;-74
2022/07/16 04:30:11;;;;;;;0.63;0.40;;;;;;;15.10;56.75;100845.75;4985463;28;20117;-74
2022/07/16 04:32:38;;;;;;;0.85;0.40;;;;;;;15.26;56.49;100833.88;4988297;28;20037;-74
2022/07/16 04:35:05;;;;;;;0.80;0.47;;;;;;;15.37;56.05;100835.44;4992478;28;20034;-74
2022/07/16 04:37:30;;;;;;;0.43;0.38;;;;;;;15.32;56.44;100827.56;4982889;28;20512;-74
2022/07/16 04:39:55;;;;;;;1.20;0.50;;;;;;;15.43;56.49;100828.22;4988309;28;20026;-74
2022/07/16 04:42:21;;;;;;;0.65;0.40;;;;;;;15.59;56.26;100820.78;4987706;28;20038;-74
2022/07/16 04:44:46;;;;;;;1.05;0.60;;;;;;;15.76;55.70;100825.75;4981468;28;20118;-74
2022/07/16 04:47:11;;;;;;;1.00;0.50;;;;;;;15.87;55.59;100825.50;4985506;28;20489;-74
2022/07/16 04:49:37;;;;;;;5.38;0.90;;;;;;;15.98;55.23;100815.47;4988411;28;20042;-75
2022/07/16 04:52:03;;;;;;;1.85;0.60;;;;;;;16.08;54.68;100811.66;4987759;28;20038;-75
2022/07/16 04:54:28;;;;;;;3.53;0.80;;;;;;;16.16;54.78;100819.47;4982787;28;20042;-73
2022/07/16 04:56:54;;;;;;;3.70;0.60;;;;;;;16.27;54.53;100813.88;4984934;28;20046;-74
2022/07/16 04:59:19;;;;;;;4.22;0.75;;;;;;;16.38;54.40;100819.84;4990410;28;20030;-74
2022/07/16 05:01:44;;;;;;;3.60;0.77;;;;;;;16.49;53.86;100820.41;4981041;28;20046;-75
2022/07/16 05:04:11;;;;;;;3.60;0.70;;;;;;;16.60;53.36;100810.34;4983104;28;20026;-75
2022/07/16 05:06:36;;;;;;;0.90;0.47;;;;;;;16.73;53.19;100815.34;4981308;28;20113;-74
2022/07/16 05:09:02;;;;;;;1.35;0.57;;;;;;;16.70;53.19;100810.97;4983743;28;20042;-74
2022/07/16 05:11:29;;;;;;;3.13;0.65;;;;;;;16.90;52.73;100817.56;4981507;28;20041;-74
2022/07/16 05:13:54;;;;;;;1.25;0.63;;;;;;;17.02;52.18;100806.59;4984649;28;20046;-74
2022/07/16 05:16:20;;;;;;;1.10;0.60;;;;;;;17.19;52.01;100804.31;4987990;28;20093;-75
2022/07/16 05:18:45;;;;;;;3.28;0.80;;;;;;;17.25;52.22;100805.94;4982471;28;20045;-75
2022/07/16 05:21:11;;;;;;;4.00;0.88;;;;;;;17.24;51.54;100809.53;4982758;28;20077;-74
2022/07/16 05:23:36;;;;;;;1.40;0.60;;;;;;;17.32;51.77;100810.16;4983497;28;20042;-74
2022/07/16 05:26:02;;;;;;;11.05;0.77;;;;;;;17.34;51.78;100813.63;4982201;28;20038;-75
2022/07/16 05:28:27;;;;;;;4.68;1.05;;;;;;;17.33;51.74;100814.56;4984282;28;20034;-74
2022/07/16 05:30:52;;;;;;;3.67;0.70;;;;;;;17.35;51.36;100820.75;4981158;28;20041;-75
2022/07/16 05:33:18;;;;;;;1.30;0.50;;;;;;;17.47;51.45;100809.69;4983679;28;20046;-74
2022/07/16 05:35:43;;;;;;;2.05;0.90;;;;;;;17.39;51.27;100811.72;4982450;28;20043;-75
2022/07/16 05:38:08;;;;;;;3.85;0.73;;;;;;;17.38;51.38;100804.63;4982503;28;20057;-75
2022/07/16 05:40:34;;;;;;;2.58;1.08;;;;;;;17.25;52.25;100804.13;4986450;28;20425;-74
2022/07/16 05:42:59;;;;;;;2.53;0.70;;;;;;;17.35;52.84;100806.53;4984039;28;20508;-74
2022/07/16 05:45:24;;;;;;;2.33;0.90;;;;;;;17.43;52.56;100802.72;4981131;28;20077;-75
2022/07/16 05:47:50;;;;;;;2.30;0.80;;;;;;;17.42;52.92;100805.41;4984172;28;20069;-75
2022/07/16 05:50:15;;;;;;;1.70;0.65;;;;;;;17.45;52.71;100806.22;4981880;28;20149;-75
2022/07/16 05:52:41;;;;;;;4.88;1.20;;;;;;;17.49;52.39;100807.84;4981250;28;20081;-75
2022/07/16 05:55:07;;;;;;;5.40;1.02;;;;;;;17.46;52.22;100804.41;4984725;28;20117;-74
2022/07/16 05:57:32;;;;;;;1.33;0.60;;;;;;;17.51;51.30;100814.03;4979156;28;20047;-75
2022/07/16 05:59:58;;;;;;;2.63;0.80;;;;;;;17.58;51.69;100824.50;4988355;28;20030;-75
2022/07/16 06:02:23;;;;;;;4.20;0.73;;;;;;;17.58;51.96;100821.81;4984946;28;20073;-74
2022/07/16 06:04:48;;;;;;;4.00;1.00;;;;;;;17.57;51.78;100822.75;4984921;28;20069;-77
2022/07/16 06:07:13;;;;;;;2.80;0.90;;;;;;;17.47;51.56;100831.03;4988011;28;20031;-75
2022/07/16 06:09:39;;;;;;;1.55;0.65;;;;;;;17.36;51.62;100826.94;4985430;28;20042;-78
2022/07/16 06:12:04;;;;;;;1.13;0.57;;;;;;;17.29;51.76;100834.25;4986474;28;20046;-78
2022/07/16 06:14:30;;;;;;;1.33;0.70;;;;;;;17.22;52.17;100827.34;4980883;28;20042;-79
2022/07/16 06:16:55;;;;;;;1.58;0.70;;;;;;;17.11;55.03;100833.00;4984709;28;20030;-78
2022/07/16 06:19:20;;;;;;;3.60;0.77;;;;;;;16.50;58.12;100845.28;4988108;28;20039;-77
2022/07/16 06:21:46;;;;;;;1.52;0.50;;;;;;;16.07;59.78;100847.22;4980268;28;20045;-78
2022/07/16 06:24:11;;;;;;;3.30;0.88;;;;;;;15.74;62.85;100839.06;4984109;28;20042;-78
2022/07/16 06:26:36;;;;;;;1.25;0.50;;;;;;;15.61;63.27;100836.69;4987534;28;20049;-78
2022/07/16 06:29:02;;;;;;;1.08;0.40;;;;;;;15.57;64.35;100831.44;4983308;28;20042;-75
2022/07/16 06:31:27;;;;;;;0.73;0.47;;;;;;;15.78;63.06;100832.78;4981107;28;20038;-75
2022/07/16 06:33:53;;;;;;;2.15;0.80;;;;;;;16.05;63.11;100835.72;4983666;28;20508;-75
2022/07/16 06:36:18;;;;;;;4.00;0.90;;;;;;;16.33;62.79;100827.94;4981257;28;20118;-75
2022/07/16 06:38:43;;;;;;;2.45;0.55;;;;;;;16.65;61.40;100824.44;4983470;28;20042;-75
2022/07/16 06:41:09;;;;;;;2.08;0.60;;;;;;;16.83;60.97;100827.56;4988180;28;20911;-75
2022/07/16 06:43:34;;;;;;;1.08;0.75;;;;;;;16.97;60.43;100825.38;4984964;28;20071;-75
2022/07/16 06:45:59;;;;;;;1.75;0.50;;;;;;;17.18;59.23;100829.22;4980660;28;20038;-75
2022/07/16 06:48:25;;;;;;;1.45;0.50;;;;;;;17.29;59.12;100831.56;4983363;28;20046;-75
2022/07/16 06:50:50;;;;;;;0.95;0.68;;;;;;;17.51;58.92;100827.38;4983125;28;20089;-76
2022/07/16 06:53:15;;;;;;;1.67;0.47;;;;;;;17.77;58.25;100823.03;4979431;28;20456;-76
2022/07/16 06:55:41;;;;;;;1.63;0.63;;;;;;;17.92;57.65;100819.91;4981819;28;20691;-74
2022/07/16 06:58:06;;;;;;;0.88;0.43;;;;;;;18.12;56.54;100819.25;4986158;28;20038;-74
2022/07/16 07:00:31;;;;;;;4.72;0.88;;;;;;;18.15;56.50;100820.94;4984251;28;20041;-73
2022/07/16 07:02:57;;;;;;;1.40;0.50;;;;;;;18.24;56.06;100815.31;4981149;28;20030;-74
2022/07/16 07:05:22;;;;;;;3.67;0.63;;;;;;;18.30;56.24;100820.44;4983098;28;20034;-74
2022/07/16 07:07:47;;;;;;;0.63;0.43;;;;;;;18.40;55.58;100808.50;4985650;28;20035;-74
2022/07/16 07:10:13;;;;;;;0.95;0.43;;;;;;;18.59;54.76;100816.75;4983341;28;20069;-74
2022/07/16 07:12:38;;;;;;;1.30;0.50;;;;;;;18.68;54.26;100814.69;4980120;28;20107;-74
2022/07/16 07:15:05;;;;;;;0.98;0.50;;;;;;;18.60;53.20;100810.50;4984837;28;20042;-74
2022/07/16 07:17:30;;;;;;;3.30;0.60;;;;;;;18.79;53.32;100815.25;4988052;28;20041;-74
2022/07/16 07:19:56;;;;;;;1.38;0.63;;;;;;;18.94;52.75;100814.69;4987319;28;20038;-74
2022/07/16 07:22:21;;;;;;;3.58;1.00;;;;;;;19.19;51.40;100806.63;4986815;28;20126;-74
2022/07/16 07:24:46;;;;;;;0.93;0.55;;;;;;;19.19;50.51;100803.06;4990094;28;20065;-74
2022/07/16 07:27:12;;;;;;;1.40;0.70;;;;;;;19.24;51.61;100790.41;4987863;28;20117;-75
2022/07/16 07:29:37;;;;;;;6.00;0.95;;;;;;;19.17;49.99;100796.91;4986202;28;20444;-75
2022/07/16 07:32:03;;;;;;;2.58;0.68;;;;;;;19.23;50.63;100796.66;4984908;28;20546;-74
2022/07/16 07:34:29;;;;;;;0.85;0.50;;;;;;;19.18;51.14;100794.19;4983437;28;20426;-75
2022/07/16 07:36:55;;;;;;;1.05;0.50;;;;;;;18.97;50.35;100797.66;4982871;28;20101;-74
2022/07/16 07:39:20;;;;;;;2.50;0.60;;;;;;;18.95;50.19;100799.53;4986002;28;20049;-74
2022/07/16 07:41:45;;;;;;;1.58;0.70;;;;;;;18.87;50.30;100805.13;4982729;28;20085;-75
2022/07/16 07:44:11;;;;;;;1.25;0.70;;;;;;;18.66;50.61;100814.78;4984656;28;20030;-74
2022/07/16 07:46:36;;;;;;;3.00;0.52;;;;;;;18.54;50.56;100807.16;4985069;28;20092;-74
2022/07/16 07:49:02;;;;;;;4.20;0.88;;;;;;;18.60;50.67;100806.94;4984492;28;20047;-74
2022/07/16 07:51:27;;;;;;;1.20;0.45;;;;;;;18.68;50.70;100804.00;4982001;28;20382;-74
2022/07/16 07:53:52;;;;;;;2.00;0.80;;;;;;;18.72;50.85;100801.16;4991297;28;20062;-75
2022/07/16 07:56:18;;;;;;;1.20;0.57;;;;;;;18.75;50.36;100803.75;4985341;28;20030;-75
2022/07/16 07:58:43;;;;;;;2.05;0.93;;;;;;;18.80;50.09;100806.28;4980631;28;20058;-75
2022/07/16 08:01:09;;;;;;;2.28;0.73;;;;;;;18.95;50.50;100803.06;4985009;28;20498;-75
2022/07/16 08:03:34;;;;;;;2.63;0.90;;;;;;;18.95;50.13;100805.72;4991168;28;20042;-75
2022/07/16 08:05:59;;;;;;;2.20;0.60;;;;;;;19.10;49.88;100806.97;4990779;28;20066;-74
2022/07/16 08:08:25;;;;;;;6.47;0.65;;;;;;;18.76;50.11;100807.34;4990534;28;20077;-75
2022/07/16 08:10:50;;;;;;;3.08;0.73;;;;;;;18.75;50.60;100802.91;4987469;28;20038;-75
2022/07/16 08:13:17;;;;;;;2.03;0.88;;;;;;;18.72;50.24;100801.16;4989201;28;20069;-75
2022/07/16 08:15:43;;;;;;;1.40;0.70;;;;;;;18.79;49.96;100802.75;4986488;28;20404;-76
2022/07/16 08:18:09;;;;;;;2.28;1.10;;;;;;;18.93;49.62;100806.72;4988741;28;20109;-75
2022/07/16 08:20:34;;;;;;;1.27;0.60;;;;;;;18.96;49.47;100801.25;4982773;28;20086;-74
2022/07/16 08:22:59;;;;;;;1.98;0.70;;;;;;;18.91;49.31;100804.09;4984861;28;20054;-74
2022/07/16 08:28:08;;;;;;;8.10;0.70;;;;;;;18.87;49.29;100798.94;4983700;28;20115;-74
2022/07/16 08:30:34;;;;;;;0.73;0.60;;;;;;;18.87;49.75;100809.63;4982178;28;20126;-74
2022/07/16 08:32:59;;;;;;;2.28;0.82;;;;;;;18.93;49.53;100801.38;4984132;28;20068;-74
2022/07/16 08:35:25;;;;;;;5.78;0.80;;;;;;;19.04;49.00;100802.69;4983277;28;20030;-75
2022/07/16 08:37:50;;;;;;;2.13;0.80;;;;;;;19.14;49.31;100808.59;4981882;28;20070;-74
2022/07/16 08:40:18;;;;;;;1.80;0.63;;;;;;;19.34;48.46;100812.34;4986588;28;20042;-74
2022/07/16 08:42:44;;;;;;;1.88;0.77;;;;;;;19.54;47.93;100803.53;4981067;28;20489;-74
2022/07/16 08:45:11;;;;;;;1.52;0.73;;;;;;;19.55;47.46;100803.47;4987196;28;20064;-74
2022/07/16 08:47:37;;;;;;;9.90;1.27;;;;;;;19.80;46.78;100797.16;4985333;28;20030;-74
2022/07/16 08:50:07;;;;;;;2.03;0.90;;;;;;;19.89;46.30;100797.69;4983489;28;20041;-74
2022/07/16 08:52:38;;;;;;;1.23;0.70;;;;;;;19.89;47.00;100796.81;4983975;28;20489;-74
2022/07/16 08:55:04;;;;;;;6.80;1.17;;;;;;;20.03;46.91;100798.94;4982041;28;20042;-75
2022/07/16 08:57:32;;;;;;;2.70;0.95;;;;;;;20.00;46.79;100805.28;4981641;28;20031;-75
2022/07/16 08:59:58;;;;;;;1.13;0.57;;;;;;;19.95;46.57;100809.09;4983342;28;20054;-75
2022/07/16 09:02:23;;;;;;;7.18;1.13;;;;;;;19.77;46.39;100799.97;4981708;28;20406;-75
2022/07/16 09:04:49;;;;;;;1.65;0.70;;;;;;;19.78;46.56;100818.69;4984738;28;20116;-75
2022/07/16 09:07:18;;;;;;;2.03;0.70;;;;;;;19.73;47.07;100814.41;4980509;28;20046;-75
2022/07/16 09:09:47;;;;;;;5.72;1.02;;;;;;;19.44;47.68;100830.66;4983085;28;20045;-75
2022/07/16 09:12:50;;;;;;;1.05;0.63;;;;;;;19.24;48.34;100836.75;4987348;28;20048;-75
2022/07/16 09:15:36;;;;;;;1.55;0.80;;;;;;;18.73;51.88;100842.16;4981152;28;20406;-74
2022/07/16 09:18:14;;;;;;;1.58;0.75;;;;;;;18.28;54.77;100858.81;4983796;28;20459;-75
2022/07/16 09:20:51;;;;;;;5.63;1.10;;;;;;;17.81;57.74;100883.44;4983240;28;20049;-75
2022/07/16 09:23:20;;;;;;;1.58;0.90;;;;;;;17.49;60.67;100879.91;4984531;28;20433;-76
2022/07/16 09:25:48;;;;;;;2.80;1.27;;;;;;;17.28;65.09;100902.72;4982994;28;20113;-76
2022/07/16 09:28:13;;;;;;;1.23;0.63;;;;;;;17.13;66.57;100899.63;4981839;28;20477;-76
2022/07/16 09:30:39;;;;;;;1.58;0.75;;;;;;;17.01;67.28;100904.38;4981563;28;20113;-76
2022/07/16 09:33:15;;;;;;;0.65;0.32;;;;;;;16.94;68.11;100909.91;4983611;28;20042;-76
2022/07/16 09:35:42;;;;;;;1.25;0.60;;;;;;;16.95;69.58;100917.88;4982563;28;20486;-77
2022/07/16 09:38:09;;;;;;;1.13;0.70;;;;;;;16.94;69.64;100913.44;4980558;28;20126;-77
2022/07/16 09:40:46;;;;;;;1.45;0.75;;;;;;;17.09;68.61;100915.69;4985526;28;20069;-76
2022/07/16 09:43:12;;;;;;;1.08;0.60;;;;;;;17.38;68.51;100907.81;4983592;28;20038;-76
2022/07/16 09:45:39;;;;;;;2.10;0.63;;;;;;;17.79;66.48;100901.31;4980513;28;20466;-77
2022/07/16 09:48:21;;;;;;;5.47;0.73;;;;;;;18.07;65.47;100895.09;4983795;28;20042;-76
2022/07/16 09:50:47;;;;;;;0.35;0.35;;;;;;;18.16;64.20;100902.84;4982844;28;20102;-77
2022/07/16 09:53:17;;;;;;;3.72;0.73;;;;;;;18.29;63.20;100903.34;4980412;28;20054;-76
2022/07/16 09:56:22;;;;;;;1.33;0.60;;;;;;;18.51;62.20;100895.47;4983280;28;20066;-77
2022/07/16 09:58:50;;;;;;;1.75;0.80;;;;;;;19.11;60.57;100893.44;4947520;28;20071;-77
2022/07/16 10:01:16;;;;;;;1.20;0.77;;;;;;;19.52;58.96;100878.56;4946497;28;20110;-76
2022/07/16 10:03:43;;;;;;;0.73;0.40;;;;;;;19.98;56.86;100882.16;4962978;28;20054;-76
2022/07/16 10:06:09;;;;;;;4.63;0.60;;;;;;;20.21;55.60;100893.75;4982949;28;20094;-76
2022/07/16 10:08:35;;;;;;;0.68;0.50;;;;;;;20.29;53.74;100879.13;4983228;28;20116;-77
2022/07/16 10:11:00;;;;;;;1.00;0.60;;;;;;;20.44;53.57;100880.28;4980884;28;20124;-76
2022/07/16 10:13:28;;;;;;;0.95;0.45;;;;;;;20.60;52.34;100885.06;4982947;28;20132;-76
2022/07/16 10:15:54;;;;;;;0.85;0.73;;;;;;;20.47;52.04;100876.63;4979973;28;20039;-76
2022/07/16 10:18:38;;;;;;;0.73;0.65;;;;;;;20.72;51.43;100887.19;4982974;28;20088;-77
2022/07/16 10:21:05;;;;;;;5.05;0.55;;;;;;;20.98;50.33;100878.88;4982891;28;20037;-76
2022/07/16 10:23:31;;;;;;;0.95;0.50;;;;;;;21.14;50.30;100878.22;4980792;28;20038;-76
2022/07/16 10:25:58;;;;;;;0.57;0.57;;;;;;;21.37;50.45;100880.72;4985763;28;20121;-76
2022/07/16 10:28:51;;;;;;;0.40;0.35;;;;;;;21.15;48.78;100886.22;4978279;28;20042;-77
2022/07/16 10:31:37;;;;;;;0.50;0.40;;;;;;;20.88;49.25;100901.72;4983127;28;20045;-76
2022/07/16 10:34:15;;;;;;;1.13;0.73;;;;;;;20.85;49.39;100892.91;4983675;28;20519;-76
2022/07/16 10:36:52;;;;;;;0.93;0.50;;;;;;;20.81;49.70;100881.44;4981223;28;20047;-76
2022/07/16 10:39:18;;;;;;;0.82;0.43;;;;;;;20.65;50.12;100881.25;4986015;28;20042;-76
2022/07/16 10:41:48;;;;;;;2.03;0.63;;;;;;;20.77;49.27;100869.97;4979149;28;20081;-77
2022/07/16 10:44:14;;;;;;;2.75;0.70;;;;;;;20.73;49.40;100878.22;4980809;28;20421;-76
2022/07/16 10:46:54;;;;;;;2.10;0.60;;;;;;;20.81;49.99;100875.22;4981874;28;20042;-76
2022/07/16 10:49:20;;;;;;;2.13;0.65;;;;;;;20.86;50.13;100874.06;4999196;28;20043;-77
2022/07/16 10:52:09;;;;;;;1.67;0.65;;;;;;;20.71;49.85;100870.25;4984919;28;20042;-77
2022/07/16 10:54:37;;;;;;;1.75;0.70;;;;;;;20.98;49.90;100862.78;4984803;28;20557;-76
2022/07/16 10:57:16;;;;;;;1.95;0.88;;;;;;;21.30;49.49;100876.59;4986668;28;20081;-76
2022/07/16 10:59:43;;;;;;;1.63;0.70;;;;;;;21.21;48.37;100861.78;4988127;28;20477;-76
2022/07/16 11:02:12;;;;;;;0.85;0.55;;;;;;;21.38;47.90;100862.88;4984194;28;20097;-76
2022/07/16 11:04:43;;;;;;;0.98;0.65;;;;;;;21.58;47.96;100856.56;4985018;28;20038;-77
2022/07/16 11:07:17;;;;;;;1.48;0.73;;;;;;;21.62;47.80;100848.28;4983862;28;20456;-76
2022/07/16 11:09:46;;;;;;;1.88;0.57;;;;;;;21.69;47.12;100840.81;4985129;28;20041;-76
2022/07/16 11:12:18;;;;;;;1.15;0.70;;;;;;;21.58;47.35;100849.38;4983648;28;20054;-76
2022/07/16 11:14:46;;;;;;;1.15;0.63;;;;;;;21.60;47.68;100841.25;4983614;28;20049;-76
2022/07/16 11:17:12;;;;;;;1.98;0.73;;;;;;;21.82;45.62;100842.00;4985674;28;20042;-76
2022/07/16 11:19:49;;;;;;;4.22;0.88;;;;;;;22.01;45.47;100836.59;4985354;28;20089;-76
2022/07/16 11:22:17;;;;;;;1.23;0.70;;;;;;;22.28;43.35;100837.06;4982863;28;20102;-76
2022/07/16 11:24:52;;;;;;;3.22;0.93;;;;;;;22.81;43.44;100829.00;4986863;28;20038;-76
2022/07/16 11:27:18;;;;;;;1.38;0.98;;;;;;;22.88;43.04;100830.44;4984636;28;20034;-76